KCNU/CNU METAR and TAF weather

Enter ICAO airport designator
Station Type Date Time Source
KCNU METAR 2020/10/29 16:52 UTC NOAA

KCNU 291652Z AUTO 35016G24KT 10SM BKN017 07/02 A3008 RMK AO2 SLP188 T00720022


Station Type Date Time Source
KCNU Decoded METAR 2020/10/29 16:52 UTC NOAA

CHANUTE JOHNSON AIRPORT, KS, United States (KCNU) 37-40N 95-29W 297M
Oct 29, 2020 - 12:52 PM EDT / 2020.10.29 1652 UTC
Wind: from the N (350 degrees) at 18 MPH (16 KT) gusting to 28 MPH (24 KT):0
Visibility: 10 mile(s):0
Sky conditions: mostly cloudy
Temperature: 45.0 F (7.2 C)
Dew Point: 36.0 F (2.2 C)
Relative Humidity: 70%
Pressure (altimeter): 30.08 in. Hg (1018 hPa)
ob: KCNU 291652Z AUTO 35016G24KT 10SM BKN017 07/02 A3008 RMK AO2 SLP188 T00720022
cycle: 17

Station Type Date Time Source
KCNU TAF 2020/10/29 14:39 UTC NOAA

TAF
AMD KCNU 291336Z 2914/3012 36016G24KT 6SM -RA BR BKN015 OVC060
FM291500 36017G25KT P6SM -RA SCT015 OVC040
FM291700 35016G24KT P6SM SCT060
FM300000 33007KT P6SM SKC

Example: see airport list